Time;durP1;ratioP1;P1;durP2;ratioP2;P2;SDS_P1;SDS_P2;PMS_P1;PMS_P2;Temp;Humidity;BMP_temperature;BMP_pressure;BME280_temperature;BME280_humidity;BME280_pressure;Samples;Min_cycle;Max_cycle;Signal;HPM_P1;HPM_P2
2022/08/28 00:00:32;;;;;;;8.07;4.60;;;25.90;71.30;;;;;;6226644;28;83856;-58
2022/08/28 00:03:32;;;;;;;9.05;3.80;;;26.00;71.70;;;;;;6212514;28;80684;-58
2022/08/28 00:06:33;;;;;;;5.55;3.85;;;26.10;71.10;;;;;;6206245;28;83049;-58
2022/08/28 00:09:33;;;;;;;6.68;4.68;;;26.20;71.20;;;;;;6214233;28;84023;-58
2022/08/28 00:12:34;;;;;;;8.57;4.07;;;26.20;71.10;;;;;;6221778;28;81370;-58
2022/08/28 00:15:34;;;;;;;8.13;4.18;;;26.30;71.50;;;;;;6223187;28;80767;-58
2022/08/28 00:18:35;;;;;;;10.98;4.03;;;26.30;71.70;;;;;;6229574;28;80820;-58
2022/08/28 00:21:36;;;;;;;9.27;3.95;;;26.30;71.60;;;;;;6221234;28;80654;-59
2022/08/28 00:24:36;;;;;;;11.32;4.53;;;26.30;71.80;;;;;;6225735;28;83183;-58
2022/08/28 00:27:52;;;;;;;10.10;4.38;;;26.40;72.00;;;;;;6218412;28;81440;-58
2022/08/28 00:30:52;;;;;;;12.07;4.53;;;26.30;72.90;;;;;;6225758;28;87302;-58
2022/08/28 00:33:53;;;;;;;9.00;4.55;;;26.30;72.10;;;;;;6218427;28;80683;-58
2022/08/28 00:36:53;;;;;;;9.80;4.70;;;26.30;72.20;;;;;;6224775;28;81030;-58
2022/08/28 00:39:53;;;;;;;8.88;4.15;;;26.30;72.40;;;;;;6204970;28;80536;-58
2022/08/28 00:42:54;;;;;;;7.22;3.95;;;26.40;72.20;;;;;;6218301;28;82309;-58
2022/08/28 00:45:54;;;;;;;7.28;3.95;;;26.40;72.50;;;;;;6206250;28;83088;-58
2022/08/28 00:48:55;;;;;;;10.43;4.65;;;26.40;72.40;;;;;;6190115;28;86393;-57
2022/08/28 00:52:06;;;;;;;12.63;4.28;;;26.50;72.50;;;;;;6222645;28;80919;-59
2022/08/28 00:55:07;;;;;;;8.05;4.95;;;26.50;72.50;;;;;;6203179;28;82081;-58
2022/08/28 00:58:08;;;;;;;14.82;4.75;;;26.40;72.40;;;;;;6223785;28;80952;-58
2022/08/28 01:01:08;;;;;;;7.68;4.18;;;26.40;72.30;;;;;;6224281;28;81034;-57
2022/08/28 01:04:09;;;;;;;7.25;4.55;;;26.40;72.50;;;;;;6194309;28;81273;-58
2022/08/28 01:07:09;;;;;;;7.65;4.22;;;26.40;72.30;;;;;;6177097;28;82290;-58
2022/08/28 01:10:10;;;;;;;11.20;4.60;;;26.40;72.80;;;;;;6212086;28;81745;-58
2022/08/28 01:13:10;;;;;;;10.95;4.32;;;26.40;72.70;;;;;;6221726;28;80627;-57
2022/08/28 01:16:11;;;;;;;7.50;4.47;;;26.50;72.40;;;;;;6222961;28;80628;-57
2022/08/28 01:19:11;;;;;;;13.10;4.63;;;26.50;72.40;;;;;;6216034;28;83049;-58
2022/08/28 01:22:12;;;;;;;7.00;4.30;;;26.50;72.40;;;;;;6204619;28;80876;-58
2022/08/28 01:25:12;;;;;;;9.27;4.47;;;26.50;72.40;;;;;;6220400;28;85482;-61
2022/08/28 01:28:13;;;;;;;13.88;4.75;;;26.50;72.50;;;;;;6208692;28;80505;-59
2022/08/28 01:31:13;;;;;;;5.80;4.30;;;26.40;72.30;;;;;;6206101;28;83293;-58
2022/08/28 01:34:14;;;;;;;4.60;3.80;;;26.40;72.30;;;;;;6221757;28;80758;-58
2022/08/28 01:37:14;;;;;;;7.90;4.20;;;26.40;72.70;;;;;;6203223;28;83447;-58
2022/08/28 01:40:16;;;;;;;8.18;4.00;;;26.40;72.50;;;;;;6224988;28;80525;-59
2022/08/28 01:43:16;;;;;;;4.85;3.72;;;26.50;72.40;;;;;;6205924;28;80380;-59
2022/08/28 01:46:17;;;;;;;5.45;3.80;;;26.50;72.40;;;;;;6204802;28;81063;-59
2022/08/28 01:49:18;;;;;;;8.27;4.47;;;26.50;72.60;;;;;;6217169;28;80448;-59
2022/08/28 01:52:18;;;;;;;13.57;4.45;;;26.50;72.70;;;;;;6221470;28;80687;-59
2022/08/28 01:55:19;;;;;;;10.70;5.35;;;26.50;72.50;;;;;;6215777;28;85168;-59
2022/08/28 01:58:19;;;;;;;7.20;4.40;;;26.50;72.50;;;;;;6204570;28;80722;-59
2022/08/28 02:01:20;;;;;;;12.65;4.85;;;26.50;72.60;;;;;;6216591;28;83696;-58
2022/08/28 02:04:20;;;;;;;5.80;3.95;;;26.40;72.50;;;;;;6208861;28;80432;-59
2022/08/28 02:07:21;;;;;;;11.52;4.45;;;26.40;72.60;;;;;;6219356;28;80173;-59
2022/08/28 02:10:23;;;;;;;6.15;4.50;;;26.40;73.00;;;;;;6223035;28;81393;-58
2022/08/28 02:13:23;;;;;;;11.23;4.00;;;26.40;72.50;;;;;;6203278;28;83753;-58
2022/08/28 02:16:24;;;;;;;10.90;5.00;;;26.40;72.60;;;;;;6216707;28;80463;-57
2022/08/28 02:19:25;;;;;;;7.35;3.58;;;26.40;72.50;;;;;;6208324;28;80354;-59
2022/08/28 02:22:25;;;;;;;6.97;4.93;;;26.40;72.60;;;;;;6210375;28;80684;-57
2022/08/28 02:25:26;;;;;;;7.68;4.70;;;26.50;72.90;;;;;;6189898;28;80867;-58
2022/08/28 02:28:26;;;;;;;10.88;4.68;;;26.50;72.70;;;;;;6207544;28;83866;-58
2022/08/28 02:31:27;;;;;;;10.13;4.57;;;26.50;72.60;;;;;;6219074;28;81668;-59
2022/08/28 02:34:27;;;;;;;10.48;4.45;;;26.40;72.40;;;;;;6219515;28;81732;-58
2022/08/28 02:37:28;;;;;;;10.63;4.90;;;26.30;72.40;;;;;;6222374;28;80365;-59
2022/08/28 02:40:28;;;;;;;9.02;4.68;;;26.20;72.40;;;;;;6224320;28;80924;-58
2022/08/28 02:43:29;;;;;;;6.32;4.40;;;26.20;72.10;;;;;;6201156;28;82868;-58
2022/08/28 02:46:30;;;;;;;16.45;4.72;;;26.30;72.40;;;;;;6187390;28;80827;-59
2022/08/28 02:49:30;;;;;;;19.83;6.00;;;26.30;71.90;;;;;;6203257;28;81215;-59
2022/08/28 02:52:31;;;;;;;8.48;5.40;;;26.30;72.00;;;;;;6204311;28;80961;-59
2022/08/28 02:55:32;;;;;;;21.50;5.70;;;26.30;71.90;;;;;;6202737;28;83037;-58
2022/08/28 02:58:34;;;;;;;11.55;5.32;;;26.30;71.80;;;;;;6221150;28;81826;-57
2022/08/28 03:01:34;;;;;;;15.45;5.53;;;26.30;71.90;;;;;;6184251;28;83095;-58
2022/08/28 03:04:35;;;;;;;6.95;5.32;;;26.20;71.90;;;;;;6215711;28;80853;-58
2022/08/28 03:07:35;;;;;;;11.15;4.75;;;26.20;71.90;;;;;;6209036;28;81280;-58
2022/08/28 03:10:36;;;;;;;11.93;5.43;;;26.30;71.80;;;;;;6179722;28;80996;-59
2022/08/28 03:13:36;;;;;;;9.82;4.82;;;26.20;71.40;;;;;;6198579;28;86770;-58
2022/08/28 03:16:37;;;;;;;11.35;4.78;;;26.20;71.60;;;;;;6215928;28;80589;-57
2022/08/28 03:19:37;;;;;;;9.23;4.70;;;26.30;71.90;;;;;;6209514;28;83719;-58
2022/08/28 03:25:57;;;;;;;8.05;5.07;;;26.20;72.20;;;;;;6202789;28;80205;-58
2022/08/28 03:28:58;;;;;;;9.35;5.00;;;26.20;72.10;;;;;;6215802;28;81212;-58
2022/08/28 03:31:59;;;;;;;8.30;5.00;;;26.20;71.90;;;;;;6209881;28;81680;-57
2022/08/28 03:34:59;;;;;;;15.32;5.45;;;26.20;72.20;;;;;;6207321;28;81821;-58
2022/08/28 03:38:00;;;;;;;8.77;4.78;;;26.20;71.90;;;;;;6221317;28;80507;-58
2022/08/28 03:41:01;;;;;;;10.30;5.15;;;26.20;71.90;;;;;;6201093;28;80628;-57
2022/08/28 03:44:01;;;;;;;8.05;4.45;;;26.10;71.90;;;;;;6221487;28;83655;-57
2022/08/28 03:47:02;;;;;;;6.57;4.70;;;26.10;71.90;;;;;;6225527;28;80934;-58
2022/08/28 03:50:02;;;;;;;8.68;5.45;;;26.10;71.70;;;;;;6223321;28;84067;-58
2022/08/28 03:53:03;;;;;;;5.65;4.55;;;26.10;71.60;;;;;;6224719;28;81024;-58
2022/08/28 03:56:03;;;;;;;7.72;4.82;;;26.10;71.40;;;;;;6231326;28;82900;-58
2022/08/28 03:59:04;;;;;;;11.63;5.32;;;26.10;71.40;;;;;;6225952;28;80229;-57
2022/08/28 04:02:04;;;;;;;8.45;4.80;;;26.10;71.80;;;;;;6223333;28;80463;-56
2022/08/28 04:05:05;;;;;;;6.88;4.60;;;26.00;71.10;;;;;;6222721;28;80639;-57
2022/08/28 04:08:05;;;;;;;9.00;5.28;;;26.00;71.00;;;;;;6198626;28;80286;-57
2022/08/28 04:11:06;;;;;;;8.32;5.32;;;26.00;70.60;;;;;;6222143;28;80921;-57
2022/08/28 04:14:06;;;;;;;10.90;5.97;;;26.00;70.60;;;;;;6224489;28;80620;-58
2022/08/28 04:17:07;;;;;;;11.18;5.38;;;25.90;70.50;;;;;;6198179;28;86452;-56
2022/08/28 04:20:07;;;;;;;13.15;5.53;;;25.90;70.30;;;;;;6207408;28;80369;-57
2022/08/28 04:23:08;;;;;;;7.20;4.43;;;26.00;70.50;;;;;;6226591;28;80704;-57
2022/08/28 04:26:09;;;;;;;11.07;5.88;;;25.90;69.90;;;;;;6207311;28;80442;-57
2022/08/28 04:29:10;;;;;;;10.38;5.60;;;25.90;69.80;;;;;;6220933;28;81216;-57
2022/08/28 04:32:10;;;;;;;12.50;5.90;;;25.90;69.70;;;;;;6222338;28;80966;-60
2022/08/28 04:35:11;;;;;;;9.98;5.88;;;25.90;69.60;;;;;;6217579;28;83714;-60
2022/08/28 04:38:11;;;;;;;11.05;5.80;;;25.90;69.40;;;;;;6209522;28;80884;-60
2022/08/28 04:41:12;;;;;;;10.23;5.97;;;25.90;69.60;;;;;;6197597;28;82193;-59
2022/08/28 04:44:12;;;;;;;12.93;6.07;;;25.80;70.20;;;;;;6209881;28;81171;-57
2022/08/28 04:47:13;;;;;;;14.45;5.63;;;25.80;69.80;;;;;;6170640;28;83156;-58
2022/08/28 04:50:13;;;;;;;10.43;5.15;;;25.80;69.80;;;;;;6197426;28;83465;-62
2022/08/28 04:53:14;;;;;;;8.65;5.13;;;25.90;69.80;;;;;;6194499;28;83145;-57
2022/08/28 04:56:14;;;;;;;10.55;5.68;;;25.90;69.80;;;;;;6194847;28;83310;-58
2022/08/28 04:59:15;;;;;;;12.95;5.70;;;26.00;69.90;;;;;;6203962;28;83235;-58
2022/08/28 05:02:15;;;;;;;8.52;4.60;;;26.10;69.80;;;;;;6183653;28;83579;-59
2022/08/28 05:05:16;;;;;;;12.18;6.10;;;26.10;69.50;;;;;;6202080;28;85619;-59
2022/08/28 05:08:17;;;;;;;8.68;5.20;;;26.20;69.40;;;;;;6189863;28;81743;-59
2022/08/28 05:11:18;;;;;;;10.32;5.65;;;26.20;69.40;;;;;;6200560;28;80615;-57
2022/08/28 05:14:20;;;;;;;15.48;7.35;;;26.30;69.00;;;;;;6203928;28;82275;-58
2022/08/28 05:17:21;;;;;;;9.93;5.43;;;26.30;69.00;;;;;;6205911;28;83143;-55
2022/08/28 05:20:21;;;;;;;11.00;6.20;;;26.00;68.80;;;;;;6206079;28;83062;-57
2022/08/28 05:23:22;;;;;;;9.45;5.38;;;25.40;69.80;;;;;;6208517;28;80763;-56
2022/08/28 05:26:23;;;;;;;7.57;5.20;;;25.10;71.30;;;;;;6206763;28;80411;-57
2022/08/28 05:29:23;;;;;;;8.75;5.70;;;25.10;72.50;;;;;;6213500;28;80898;-57
2022/08/28 05:32:24;;;;;;;10.35;5.18;;;25.10;73.50;;;;;;6223453;28;80563;-58
2022/08/28 05:35:24;;;;;;;8.48;5.35;;;25.40;72.70;;;;;;6218519;28;80799;-58
2022/08/28 05:38:25;;;;;;;18.48;5.43;;;25.70;71.90;;;;;;6223377;28;80565;-58
2022/08/28 05:41:25;;;;;;;17.45;7.55;;;25.80;71.60;;;;;;6222931;28;81259;-58
2022/08/28 05:44:26;;;;;;;18.45;6.93;;;25.80;72.00;;;;;;6220827;28;80754;-58
2022/08/28 05:47:27;;;;;;;13.35;6.03;;;25.70;72.30;;;;;;6221239;28;80413;-58
2022/08/28 05:50:27;;;;;;;11.82;6.20;;;25.40;73.40;;;;;;6222380;28;80326;-58
2022/08/28 05:53:28;;;;;;;9.25;5.75;;;25.50;73.60;;;;;;6202452;28;80700;-60
2022/08/28 05:56:29;;;;;;;10.07;5.60;;;25.60;73.30;;;;;;6221060;28;81568;-59
2022/08/28 05:59:29;;;;;;;11.77;5.15;;;25.70;72.90;;;;;;6203994;28;80315;-57
2022/08/28 06:02:30;;;;;;;11.05;5.80;;;25.90;73.30;;;;;;6224494;28;80495;-55
2022/08/28 06:05:30;;;;;;;14.85;5.93;;;25.90;73.00;;;;;;6222003;28;80347;-58
2022/08/28 06:08:31;;;;;;;15.07;5.38;;;26.00;72.10;;;;;;6201814;28;83042;-59
2022/08/28 06:11:31;;;;;;;14.48;6.47;;;25.90;71.30;;;;;;6219469;28;82576;-58
2022/08/28 06:14:32;;;;;;;11.48;5.95;;;25.90;71.00;;;;;;6192592;28;81024;-58
2022/08/28 06:17:33;;;;;;;7.70;5.10;;;26.10;71.30;;;;;;6217431;28;81336;-58
2022/08/28 06:20:34;;;;;;;11.88;5.97;;;26.10;71.20;;;;;;6218121;28;80972;-57
2022/08/28 06:23:34;;;;;;;16.73;5.90;;;26.10;70.80;;;;;;6217394;28;80332;-58
2022/08/28 06:26:35;;;;;;;10.85;5.90;;;26.20;71.00;;;;;;6217551;28;82466;-57
2022/08/28 06:29:36;;;;;;;10.52;5.05;;;26.20;70.90;;;;;;6203656;28;82212;-59
2022/08/28 06:32:36;;;;;;;12.27;5.22;;;26.20;70.60;;;;;;6213409;28;80404;-61
2022/08/28 06:35:37;;;;;;;8.70;5.15;;;26.30;70.70;;;;;;6216969;28;84990;-58
2022/08/28 06:38:37;;;;;;;9.90;5.72;;;26.40;70.60;;;;;;6190246;28;82796;-59
2022/08/28 06:41:41;;;;;;;12.57;4.82;;;26.40;70.70;;;;;;6221064;28;84873;-59
2022/08/28 06:44:42;;;;;;;12.38;4.60;;;26.40;71.00;;;;;;6218153;28;80610;-59
2022/08/28 06:47:42;;;;;;;17.00;5.18;;;26.40;70.70;;;;;;6218702;28;87635;-58
2022/08/28 06:50:43;;;;;;;11.90;5.53;;;26.50;71.00;;;;;;6220283;28;80352;-57
2022/08/28 06:53:43;;;;;;;12.70;5.72;;;26.60;71.10;;;;;;6221130;28;80322;-59
2022/08/28 06:56:45;;;;;;;10.73;5.60;;;26.70;71.40;;;;;;6216118;28;81275;-59
2022/08/28 06:59:46;;;;;;;10.48;5.78;;;26.70;71.60;;;;;;6221110;28;81237;-58
2022/08/28 07:02:46;;;;;;;7.63;5.43;;;26.80;71.70;;;;;;6217998;28;80935;-58
2022/08/28 07:05:47;;;;;;;9.07;4.97;;;26.80;71.60;;;;;;6219259;28;82655;-59
2022/08/28 07:08:47;;;;;;;7.70;5.10;;;26.90;71.30;;;;;;6200016;28;81528;-57
2022/08/28 07:11:48;;;;;;;12.30;5.15;;;26.90;71.30;;;;;;6202814;28;80702;-57
2022/08/28 07:14:49;;;;;;;9.90;5.90;;;26.90;71.10;;;;;;6218937;28;81620;-57
2022/08/28 07:17:50;;;;;;;9.02;5.07;;;26.90;71.20;;;;;;6217561;28;81058;-58
2022/08/28 07:20:50;;;;;;;11.00;5.25;;;26.90;71.20;;;;;;6217235;28;80539;-55
2022/08/28 07:23:51;;;;;;;11.60;5.68;;;26.90;71.30;;;;;;6215183;28;80924;-59
2022/08/28 07:26:52;;;;;;;11.55;6.60;;;27.00;71.40;;;;;;6220789;28;80776;-58
2022/08/28 07:29:52;;;;;;;9.73;5.43;;;27.00;70.90;;;;;;6184034;28;83307;-59
2022/08/28 07:32:53;;;;;;;20.60;6.50;;;27.00;70.90;;;;;;6190198;28;83863;-58
2022/08/28 07:35:53;;;;;;;8.45;4.82;;;27.00;70.40;;;;;;6155889;28;85787;-57
2022/08/28 07:38:54;;;;;;;10.57;5.68;;;27.00;69.30;;;;;;6153953;28;82978;-58
2022/08/28 07:41:54;;;;;;;9.82;5.40;;;27.00;68.70;;;;;;6179763;28;81318;-57
2022/08/28 07:44:56;;;;;;;8.10;4.95;;;27.00;68.60;;;;;;6184321;28;80535;-58
2022/08/28 07:47:57;;;;;;;9.35;5.28;;;26.90;70.00;;;;;;6193979;28;80668;-63
2022/08/28 07:50:57;;;;;;;7.53;4.72;;;27.00;70.00;;;;;;6196270;28;82120;-60
2022/08/28 07:53:58;;;;;;;11.82;5.93;;;27.00;69.80;;;;;;6196196;28;80116;-60
2022/08/28 07:56:58;;;;;;;9.80;5.53;;;27.00;69.70;;;;;;6197407;28;85090;-59
2022/08/28 07:59:59;;;;;;;13.13;6.18;;;27.10;68.50;;;;;;6196514;28;81074;-57
2022/08/28 08:02:59;;;;;;;8.30;4.90;;;27.10;68.90;;;;;;6195623;28;84770;-58
2022/08/28 08:06:01;;;;;;;8.77;5.35;;;27.10;68.80;;;;;;6197442;28;80327;-59
2022/08/28 08:09:02;;;;;;;10.90;5.53;;;27.20;69.00;;;;;;6198255;28;80735;-58
2022/08/28 08:12:03;;;;;;;16.60;6.38;;;27.10;67.90;;;;;;6195143;28;80139;-63
2022/08/28 08:15:04;;;;;;;12.93;5.65;;;27.10;69.20;;;;;;6194393;28;81694;-57
2022/08/28 08:18:04;;;;;;;6.55;4.68;;;27.20;69.00;;;;;;6196816;28;85320;-58
2022/08/28 08:21:05;;;;;;;12.23;5.38;;;27.20;68.50;;;;;;6195838;28;81067;-64
2022/08/28 08:24:05;;;;;;;9.77;5.25;;;27.20;68.20;;;;;;6182624;28;82699;-62
2022/08/28 08:27:06;;;;;;;13.15;5.60;;;27.30;68.10;;;;;;6179929;28;83253;-58
2022/08/28 08:30:06;;;;;;;7.35;4.93;;;27.30;68.30;;;;;;6217022;28;83217;-59
2022/08/28 08:33:07;;;;;;;10.45;5.00;;;27.30;68.00;;;;;;6219477;28;80915;-58
2022/08/28 08:36:07;;;;;;;10.07;5.55;;;27.30;67.30;;;;;;6207502;28;82282;-59
2022/08/28 08:39:08;;;;;;;10.10;5.03;;;27.30;66.50;;;;;;6220570;28;80515;-57
2022/08/28 08:42:08;;;;;;;8.93;4.88;;;27.10;66.70;;;;;;6220871;28;80094;-56
2022/08/28 08:45:09;;;;;;;8.48;5.93;;;27.10;66.00;;;;;;6209665;28;85008;-58
2022/08/28 08:48:12;;;;;;;8.98;5.53;;;27.10;65.90;;;;;;6199800;28;80639;-58
2022/08/28 08:51:13;;;;;;;8.25;5.28;;;27.10;65.80;;;;;;6200001;28;81840;-57
2022/08/28 08:54:14;;;;;;;7.25;4.55;;;27.10;66.20;;;;;;6202825;28;83438;-55
2022/08/28 08:57:14;;;;;;;12.63;5.22;;;27.00;67.20;;;;;;6016378;28;85746;-55
2022/08/28 09:00:15;;;;;;;10.82;5.43;;;26.90;67.80;;;;;;6206004;28;80708;-56
2022/08/28 09:03:15;;;;;;;9.70;4.85;;;27.10;67.90;;;;;;6204455;28;84254;-58
2022/08/28 09:06:16;;;;;;;12.27;5.47;;;27.20;67.80;;;;;;6220801;28;81459;-57
2022/08/28 09:09:16;;;;;;;18.65;5.90;;;27.20;67.80;;;;;;6203205;28;83079;-55
2022/08/28 09:12:17;;;;;;;16.33;6.78;;;27.20;67.60;;;;;;6207127;28;83006;-53
2022/08/28 09:15:18;;;;;;;13.77;5.15;;;27.30;67.30;;;;;;6209867;28;81659;-58
2022/08/28 09:18:19;;;;;;;11.63;5.82;;;27.30;67.40;;;;;;6211490;28;82134;-58
2022/08/28 09:21:19;;;;;;;11.98;5.88;;;27.20;67.10;;;;;;6210600;28;83738;-57
2022/08/28 09:24:19;;;;;;;8.82;5.13;;;27.20;67.20;;;;;;6220318;28;80888;-56
2022/08/28 09:27:20;;;;;;;9.40;5.50;;;27.10;67.70;;;;;;6214664;28;85694;-58
2022/08/28 09:30:20;;;;;;;13.18;5.63;;;27.00;68.00;;;;;;6211531;28;80620;-58
2022/08/28 09:33:21;;;;;;;9.80;5.18;;;27.00;67.90;;;;;;6177159;28;83175;-58
2022/08/28 09:36:22;;;;;;;13.30;6.25;;;27.10;67.70;;;;;;6201242;28;80323;-58
2022/08/28 09:39:22;;;;;;;10.80;5.93;;;27.10;67.60;;;;;;6217669;28;80984;-58
2022/08/28 09:45:45;;;;;;;10.15;5.75;;;26.90;68.20;;;;;;6189059;28;81211;-58
2022/08/28 09:48:45;;;;;;;12.85;5.55;;;26.90;68.10;;;;;;6209800;28;80254;-58
2022/08/28 09:51:46;;;;;;;8.88;5.25;;;26.90;67.90;;;;;;6211096;28;80672;-57
2022/08/28 09:54:46;;;;;;;7.70;5.05;;;26.90;68.00;;;;;;6214371;28;87507;-58
2022/08/28 09:57:47;;;;;;;13.90;5.00;;;26.90;67.30;;;;;;6201749;28;83466;-58
2022/08/28 10:00:47;;;;;;;12.50;4.93;;;27.00;67.30;;;;;;6208085;28;80866;-58
2022/08/28 10:03:48;;;;;;;9.50;5.25;;;27.00;67.50;;;;;;6223566;28;80992;-57
2022/08/28 10:06:48;;;;;;;19.63;5.40;;;27.10;67.40;;;;;;6211349;28;80561;-58
2022/08/28 10:09:49;;;;;;;9.63;4.88;;;27.10;67.50;;;;;;6217156;28;81482;-58
2022/08/28 10:12:49;;;;;;;8.00;5.10;;;27.10;66.70;;;;;;6193889;28;80465;-58
2022/08/28 10:15:50;;;;;;;14.40;5.95;;;27.00;67.50;;;;;;6206246;28;86380;-58
2022/08/28 10:18:51;;;;;;;7.00;5.43;;;27.00;67.80;;;;;;6206171;28;83250;-58
2022/08/28 10:21:51;;;;;;;10.95;5.68;;;27.00;67.60;;;;;;6223064;28;80385;-58
2022/08/28 10:24:52;;;;;;;10.25;4.93;;;27.00;67.10;;;;;;6208393;28;82740;-58
2022/08/28 10:27:52;;;;;;;12.82;5.57;;;27.10;67.60;;;;;;6202879;28;83724;-57
2022/08/28 10:30:53;;;;;;;13.30;6.28;;;27.10;67.80;;;;;;6205376;28;82043;-58
2022/08/28 10:33:53;;;;;;;13.85;6.78;;;27.10;67.80;;;;;;6223495;28;80341;-58
2022/08/28 10:36:54;;;;;;;19.48;7.03;;;27.20;68.20;;;;;;6218090;28;86021;-58
2022/08/28 10:39:54;;;;;;;19.42;6.60;;;27.20;68.40;;;;;;6197015;28;81348;-57
2022/08/28 10:42:55;;;;;;;13.20;5.78;;;27.20;68.30;;;;;;6204281;28;85541;-58
2022/08/28 10:45:56;;;;;;;12.35;5.90;;;27.20;68.20;;;;;;6219301;28;80128;-58
2022/08/28 10:48:56;;;;;;;21.23;6.38;;;27.10;68.50;;;;;;6221308;28;80463;-60
2022/08/28 10:51:57;;;;;;;14.65;7.32;;;27.20;67.70;;;;;;6219246;28;80860;-59
2022/08/28 10:54:57;;;;;;;10.10;7.00;;;27.10;68.10;;;;;;6205736;28;85239;-59
2022/08/28 10:57:58;;;;;;;14.00;6.07;;;27.10;67.90;;;;;;6193133;28;80319;-58
2022/08/28 11:00:58;;;;;;;10.15;5.82;;;27.10;68.20;;;;;;6220772;28;81300;-58
2022/08/28 11:03:59;;;;;;;13.75;6.43;;;27.10;68.50;;;;;;6220936;28;83086;-58
2022/08/28 11:06:59;;;;;;;11.48;5.60;;;27.10;67.50;;;;;;6225986;28;83813;-58
2022/08/28 11:10:00;;;;;;;11.07;5.85;;;27.10;67.50;;;;;;6224889;28;80477;-58
2022/08/28 11:13:00;;;;;;;12.45;6.80;;;27.00;67.90;;;;;;6220383;28;81045;-55
2022/08/28 11:16:01;;;;;;;12.50;6.95;;;27.00;67.60;;;;;;6225162;28;82343;-59
2022/08/28 11:19:01;;;;;;;11.82;6.43;;;27.00;67.90;;;;;;6224546;28;80410;-56
2022/08/28 11:22:01;;;;;;;10.45;5.70;;;27.00;68.20;;;;;;6221240;28;80196;-54
2022/08/28 11:25:02;;;;;;;7.35;5.07;;;26.70;67.80;;;;;;6226379;28;81271;-57
2022/08/28 11:28:02;;;;;;;13.18;5.47;;;26.70;69.50;;;;;;6221982;28;80284;-60
2022/08/28 11:31:03;;;;;;;13.13;5.93;;;26.60;69.80;;;;;;6224235;28;80593;-56
2022/08/28 11:34:04;;;;;;;18.83;5.05;;;26.60;70.60;;;;;;6224635;28;86691;-57
2022/08/28 11:37:04;;;;;;;10.18;5.72;;;26.80;70.50;;;;;;6235833;28;80339;-57
2022/08/28 11:40:05;;;;;;;12.13;5.75;;;26.80;69.90;;;;;;6206201;28;80444;-62
2022/08/28 11:43:06;;;;;;;15.02;5.93;;;26.70;69.90;;;;;;6225360;28;80312;-58
2022/08/28 11:46:06;;;;;;;16.05;5.82;;;26.60;69.40;;;;;;6176826;28;82396;-57
2022/08/28 11:49:07;;;;;;;8.07;5.35;;;26.70;69.60;;;;;;6189286;28;80634;-63
2022/08/28 11:52:07;;;;;;;7.60;4.90;;;26.70;69.30;;;;;;6218176;28;86380;-63
2022/08/28 11:55:08;;;;;;;22.98;7.57;;;26.80;69.00;;;;;;6181115;28;83228;-62
2022/08/28 11:58:08;;;;;;;11.32;5.53;;;26.90;68.70;;;;;;6203982;28;86390;-69
2022/08/28 12:01:09;;;;;;;11.50;5.07;;;27.00;68.80;;;;;;6224659;28;80902;-58
2022/08/28 12:04:11;;;;;;;11.07;5.45;;;27.10;68.80;;;;;;6225730;28;81059;-66
2022/08/28 12:07:12;;;;;;;7.32;5.22;;;27.20;68.80;;;;;;6233251;28;80820;-58
2022/08/28 12:10:12;;;;;;;14.02;5.88;;;27.30;68.50;;;;;;6212141;28;85453;-59
2022/08/28 12:13:13;;;;;;;9.50;5.15;;;27.20;68.40;;;;;;6222494;28;84717;-59
2022/08/28 12:16:13;;;;;;;14.63;5.55;;;27.30;68.30;;;;;;6223607;28;80645;-58
2022/08/28 12:19:14;;;;;;;10.50;4.30;;;27.30;67.80;;;;;;6223947;28;81326;-58
2022/08/28 12:22:14;;;;;;;7.90;4.03;;;27.30;67.30;;;;;;6223790;28;84831;-59
2022/08/28 12:25:15;;;;;;;5.88;4.40;;;27.30;67.00;;;;;;6202271;28;83250;-59
2022/08/28 12:28:15;;;;;;;11.20;4.15;;;27.30;66.80;;;;;;6222143;28;80483;-58
2022/08/28 12:31:16;;;;;;;5.30;3.92;;;27.30;66.40;;;;;;6219226;28;80422;-58
2022/08/28 12:34:16;;;;;;;8.13;4.72;;;27.40;66.00;;;;;;6202153;28;81465;-59
2022/08/28 12:37:17;;;;;;;4.97;3.90;;;27.40;65.70;;;;;;6222616;28;80489;-59
2022/08/28 12:40:20;;;;;;;5.13;3.90;;;27.40;65.20;;;;;;6205218;28;81732;-58
2022/08/28 12:43:20;;;;;;;7.28;4.00;;;27.50;64.90;;;;;;6223921;28;82636;-58
2022/08/28 12:46:21;;;;;;;5.35;3.67;;;27.50;64.80;;;;;;6208283;28;80587;-59
2022/08/28 12:49:22;;;;;;;13.40;4.80;;;27.50;64.20;;;;;;6207118;28;81699;-59
2022/08/28 12:52:22;;;;;;;6.72;3.55;;;27.60;64.30;;;;;;6226755;28;83474;-58
2022/08/28 12:55:23;;;;;;;9.52;3.97;;;27.60;64.50;;;;;;6206500;28;80647;-57
2022/08/28 12:58:23;;;;;;;7.88;3.83;;;27.70;64.50;;;;;;6208437;28;82431;-58
2022/08/28 13:01:24;;;;;;;6.13;4.05;;;27.60;64.70;;;;;;6219187;28;80777;-58
2022/08/28 13:04:24;;;;;;;11.30;4.15;;;27.70;64.70;;;;;;6221570;28;83427;-58
2022/08/28 13:07:25;;;;;;;6.95;3.70;;;27.70;64.70;;;;;;6212146;28;80437;-58
2022/08/28 13:10:25;;;;;;;5.93;4.13;;;27.70;64.70;;;;;;6225354;28;80346;-58
2022/08/28 13:13:26;;;;;;;6.63;3.70;;;27.70;64.60;;;;;;6221287;28;80649;-58
2022/08/28 13:16:26;;;;;;;8.98;4.10;;;27.80;64.90;;;;;;6225896;28;80458;-58
2022/08/28 13:19:27;;;;;;;6.57;4.47;;;27.80;64.20;;;;;;6215850;28;83826;-58
2022/08/28 13:22:27;;;;;;;6.82;3.97;;;27.80;64.70;;;;;;6202541;28;81313;-57
2022/08/28 13:25:28;;;;;;;7.03;3.63;;;27.80;64.70;;;;;;6222650;28;86181;-58
2022/08/28 13:28:28;;;;;;;6.20;4.00;;;27.80;65.00;;;;;;6223672;28;80622;-58
2022/08/28 13:31:29;;;;;;;10.85;4.55;;;27.70;63.90;;;;;;6210663;28;83684;-58
2022/08/28 13:34:29;;;;;;;7.53;4.32;;;27.70;63.10;;;;;;6222567;28;80620;-58
2022/08/28 13:37:30;;;;;;;6.00;4.72;;;27.60;63.30;;;;;;6222505;28;80605;-58
2022/08/28 13:40:30;;;;;;;11.55;5.18;;;27.60;63.30;;;;;;6225094;28;80209;-58
2022/08/28 13:43:31;;;;;;;6.93;4.63;;;27.60;64.00;;;;;;6208855;28;84368;-58
2022/08/28 13:46:32;;;;;;;9.00;4.53;;;27.70;64.10;;;;;;6221216;28;82736;-58
2022/08/28 13:49:32;;;;;;;7.78;4.88;;;27.70;64.10;;;;;;6220635;28;82023;-58
2022/08/28 13:52:33;;;;;;;10.55;4.78;;;27.70;64.40;;;;;;6208513;28;82987;-58
2022/08/28 13:55:34;;;;;;;9.50;5.57;;;27.80;64.20;;;;;;6218074;28;80198;-58
2022/08/28 13:58:34;;;;;;;6.65;4.47;;;27.80;64.20;;;;;;6221861;28;80931;-58
2022/08/28 14:04:54;;;;;;;6.15;4.10;;;27.90;64.50;;;;;;6215872;28;80858;-58
2022/08/28 14:07:54;;;;;;;9.73;5.40;;;27.80;64.50;;;;;;6218125;28;80131;-58
2022/08/28 14:10:55;;;;;;;9.70;3.55;;;27.80;64.80;;;;;;6224665;28;83696;-58
2022/08/28 14:13:55;;;;;;;8.48;4.47;;;27.80;64.70;;;;;;6203089;28;80479;-57
2022/08/28 14:16:56;;;;;;;7.65;4.50;;;27.80;64.60;;;;;;6219476;28;80607;-63
2022/08/28 14:19:59;;;;;;;6.95;4.32;;;27.90;65.00;;;;;;6226088;27;80643;-59
2022/08/28 14:22:59;;;;;;;7.63;5.13;;;27.70;64.70;;;;;;6221753;28;84574;-64
2022/08/28 14:25:59;;;;;;;6.70;4.60;;;27.70;65.20;;;;;;6217329;28;80433;-64
2022/08/28 14:29:00;;;;;;;9.70;4.47;;;27.70;65.30;;;;;;6198309;28;82961;-57
2022/08/28 14:32:02;;;;;;;8.38;5.03;;;27.80;65.60;;;;;;6195646;28;81621;-56
2022/08/28 14:35:03;;;;;;;18.38;5.07;;;27.70;66.00;;;;;;6194084;28;85851;-58
2022/08/28 14:38:03;;;;;;;6.88;4.82;;;27.70;66.50;;;;;;6207264;28;81350;-57
2022/08/28 14:41:04;;;;;;;6.68;3.90;;;27.70;67.10;;;;;;6201083;28;81033;-57
2022/08/28 14:44:04;;;;;;;12.43;4.65;;;27.70;67.20;;;;;;6213711;28;81059;-53
2022/08/28 14:47:05;;;;;;;7.43;4.75;;;27.60;67.10;;;;;;6188876;28;80581;-56
2022/08/28 14:50:05;;;;;;;7.72;5.15;;;27.70;67.60;;;;;;6204582;28;80775;-57
2022/08/28 14:53:06;;;;;;;6.05;4.32;;;27.70;67.40;;;;;;6209780;28;81845;-58
2022/08/28 14:56:06;;;;;;;7.68;4.57;;;27.80;67.50;;;;;;6204992;28;80326;-58
2022/08/28 14:59:07;;;;;;;7.90;4.60;;;27.70;67.40;;;;;;6219245;28;80741;-58
2022/08/28 15:02:07;;;;;;;7.53;5.25;;;27.80;67.50;;;;;;6217205;28;80451;-64
2022/08/28 15:05:08;;;;;;;15.48;6.30;;;27.70;67.50;;;;;;6218610;28;80686;-63
2022/08/28 15:08:08;;;;;;;7.30;5.40;;;27.70;67.80;;;;;;6221386;28;81045;-59
2022/08/28 15:11:09;;;;;;;11.20;6.10;;;27.70;67.70;;;;;;6220815;28;82027;-59
2022/08/28 15:14:09;;;;;;;7.53;5.15;;;27.70;67.90;;;;;;6223098;28;81172;-60
2022/08/28 15:17:10;;;;;;;13.85;5.28;;;27.70;68.20;;;;;;6218576;28;85044;-65
2022/08/28 15:20:11;;;;;;;10.02;5.60;;;27.70;68.20;;;;;;6209841;28;81166;-59
2022/08/28 15:23:11;;;;;;;10.20;5.35;;;27.70;68.30;;;;;;6223733;28;80794;-59
2022/08/28 15:26:13;;;;;;;9.07;5.78;;;27.70;68.60;;;;;;6215512;28;81386;-64
2022/08/28 15:29:13;;;;;;;8.85;6.18;;;27.70;68.80;;;;;;6218450;28;82989;-58
2022/08/28 15:32:14;;;;;;;13.02;6.45;;;27.70;69.00;;;;;;6177358;28;83398;-58
2022/08/28 15:35:15;;;;;;;15.90;6.38;;;27.60;69.40;;;;;;6197420;28;80288;-57
2022/08/28 15:38:15;;;;;;;12.70;6.28;;;27.60;68.80;;;;;;6195312;28;80352;-68
2022/08/28 15:41:25;;;;;;;11.52;5.97;;;27.60;69.30;;;;;;6203093;28;80904;-59